Epse, Netherlands
Current Conditions -  °F | °C
As of 7:55 AM on Wednesday 22 Oct 2014 (Local Time) from EHDL Reporting Station
Rain Showers Rain Showers  
Wind Chill: 39°   Ceiling: 4400
Heat Index: 46°   Visibility: 6mi
Dew Point: 43°   Wind: 17mph
Humidity: 87%   Direction: 300°WNW
Pressure: 29.91"   Gusts: 31mph
Location:  52.23°N, 6.2°E
Report Text: EHDL 220555Z AUTO 30015G27KT 9000 -SHRA FEW014 FEW015TCU SCT038 BKN044 08/06 Q1013 REDZ BLU
Loading
Personal Weather Stations






























Interactive Weather Map
Tropical Storm Tracking
New forecast layout! Learn more

10-Day Weather Forecast

Advertisements
Track Severe Weather on mobile